createdAt,value
2019-04-14T00:01:58.786Z,4.80
2019-04-14T00:04:27.214Z,4.90
2019-04-14T00:06:54.672Z,4.90
2019-04-14T00:09:22.596Z,4.90
2019-04-14T00:11:50.372Z,4.80
2019-04-14T00:14:16.843Z,4.80
2019-04-14T00:16:44.496Z,4.80
2019-04-14T00:19:10.997Z,4.80
2019-04-14T00:21:37.458Z,4.80
2019-04-14T00:24:05.242Z,4.90
2019-04-14T00:26:33.857Z,4.90
2019-04-14T00:29:00.760Z,4.80
2019-04-14T00:31:28.386Z,4.90
2019-04-14T00:33:57.085Z,4.80
2019-04-14T00:36:28.424Z,4.90
2019-04-14T00:38:54.765Z,4.90
2019-04-14T00:41:34.282Z,4.80
2019-04-14T00:43:59.249Z,4.90
2019-04-14T00:46:36.780Z,4.80
2019-04-14T00:49:04.965Z,4.80
2019-04-14T00:51:31.535Z,4.80
2019-04-14T00:53:58.467Z,4.80
2019-04-14T00:56:25.852Z,4.80
2019-04-14T00:58:52.402Z,4.90
2019-04-14T01:01:19.727Z,4.90
2019-04-14T01:03:46.146Z,4.80
2019-04-14T01:06:12.575Z,4.80
2019-04-14T01:08:40.219Z,4.80
2019-04-14T01:11:07.393Z,4.80
2019-04-14T01:13:33.810Z,4.80
2019-04-14T01:16:06.947Z,4.80
2019-04-14T01:18:28.352Z,4.80
2019-04-14T01:20:55.758Z,4.90
2019-04-14T01:23:22.134Z,4.80
2019-04-14T01:25:49.863Z,4.80
2019-04-14T01:28:16.339Z,4.90
2019-04-14T01:30:43.723Z,4.90
2019-04-14T01:33:10.211Z,4.90
2019-04-14T01:35:37.793Z,4.90
2019-04-14T01:38:04.353Z,4.90
2019-04-14T01:40:31.443Z,5.00
2019-04-14T01:42:57.872Z,5.00
2019-04-14T01:45:25.349Z,5.00
2019-04-14T01:47:51.720Z,5.00
2019-04-14T01:50:21.197Z,4.90
2019-04-14T01:52:50.173Z,4.90
2019-04-14T01:55:28.711Z,4.90
2019-04-14T01:57:57.145Z,5.00
2019-04-14T02:00:38.157Z,5.00
2019-04-14T02:03:06.125Z,5.00
2019-04-14T02:05:32.560Z,4.90
2019-04-14T02:08:00.072Z,4.90
2019-04-14T02:10:26.479Z,5.00
2019-04-14T02:12:54.107Z,4.90
2019-04-14T02:15:20.732Z,4.90
2019-04-14T02:17:48.116Z,4.90
2019-04-14T02:20:14.611Z,4.90
2019-04-14T02:22:41.950Z,5.00
2019-04-14T02:25:09.877Z,4.90
2019-04-14T02:27:36.327Z,4.90
2019-04-14T02:30:08.890Z,4.90
2019-04-14T02:33:05.388Z,5.00
2019-04-14T02:35:40.463Z,5.00
2019-04-14T02:38:09.427Z,5.00
2019-04-14T02:40:28.653Z,5.00
2019-04-14T02:45:33.132Z,5.00
2019-04-14T02:50:17.210Z,4.90
2019-04-14T02:52:53.662Z,4.90
2019-04-14T02:55:10.679Z,4.90
2019-04-14T03:00:19.808Z,5.00
2019-04-14T03:02:41.184Z,5.00
2019-04-14T03:05:02.484Z,5.00
2019-04-14T03:07:40.236Z,5.00
2019-04-14T03:10:00.769Z,4.90
2019-04-14T03:12:31.183Z,4.90
2019-04-14T03:15:01.049Z,4.90
2019-04-14T03:20:19.313Z,4.90
2019-04-14T03:22:55.888Z,4.90
2019-04-14T03:25:16.734Z,4.90
2019-04-14T03:27:55.209Z,4.90
2019-04-14T03:40:18.186Z,5.00
2019-04-14T03:42:59.050Z,4.90
2019-04-14T03:45:16.711Z,5.00
2019-04-14T03:47:41.955Z,5.00
2019-04-14T03:50:17.246Z,4.90
2019-04-14T03:52:53.381Z,4.90
2019-04-14T03:54:57.013Z,4.90
2019-04-14T03:57:10.456Z,4.90
2019-04-14T03:59:36.901Z,5.00
2019-04-14T04:02:03.298Z,5.00
2019-04-14T04:04:29.625Z,4.90
2019-04-14T04:06:55.979Z,4.90
2019-04-14T04:09:25.732Z,4.90
2019-04-14T04:11:52.135Z,4.90
2019-04-14T04:14:18.473Z,4.90
2019-04-14T04:16:50.703Z,5.00
2019-04-14T04:19:27.217Z,4.90
2019-04-14T04:22:10.964Z,4.90
2019-04-14T04:24:52.152Z,4.90
2019-04-14T04:27:24.391Z,5.00
2019-04-14T04:29:59.205Z,5.00
2019-04-14T04:32:30.248Z,5.00
2019-04-14T04:34:58.507Z,5.00
2019-04-14T04:37:30.103Z,5.00
2019-04-14T04:39:58.427Z,5.00
2019-04-14T04:42:24.847Z,5.00
2019-04-14T04:44:51.206Z,5.00
2019-04-14T04:47:18.692Z,5.10
2019-04-14T04:49:45.182Z,5.00
2019-04-14T04:52:13.944Z,5.00
2019-04-14T04:54:40.687Z,5.00
2019-04-14T04:57:07.180Z,5.00
2019-04-14T04:59:34.297Z,5.00
2019-04-14T05:02:00.724Z,5.10
2019-04-14T05:04:27.120Z,5.20
2019-04-14T05:06:59.259Z,5.20
2019-04-14T05:09:38.508Z,5.20
2019-04-14T05:12:26.277Z,5.20
2019-04-14T05:15:00.976Z,5.20
2019-04-14T05:17:29.888Z,5.30
2019-04-14T05:19:58.298Z,5.30
2019-04-14T05:22:24.839Z,5.40
2019-04-14T05:24:51.218Z,5.40
2019-04-14T05:27:18.819Z,5.50
2019-04-14T05:29:45.239Z,5.60
2019-04-14T05:32:11.718Z,5.80
2019-04-14T05:34:39.037Z,6.00
2019-04-14T05:37:05.423Z,6.10
2019-04-14T05:39:32.850Z,6.20
2019-04-14T05:42:07.707Z,6.30
2019-04-14T05:44:27.619Z,6.50
2019-04-14T05:46:53.993Z,6.70
2019-04-14T05:49:30.640Z,6.90
2019-04-14T05:51:50.144Z,7.20
2019-04-14T05:54:16.819Z,7.40
2019-04-14T05:56:43.169Z,7.70
2019-04-14T05:59:09.551Z,8.00
2019-04-14T06:01:36.608Z,8.70
2019-04-14T06:04:03.206Z,9.00
2019-04-14T06:06:29.575Z,9.00
2019-04-14T06:08:55.931Z,9.20
2019-04-14T06:11:22.313Z,9.70
2019-04-14T06:13:48.738Z,10.10
2019-04-14T06:16:16.369Z,10.20
2019-04-14T06:18:42.709Z,10.20
2019-04-14T06:21:09.100Z,10.30
2019-04-14T06:23:35.520Z,10.60
2019-04-14T06:26:01.930Z,10.60
2019-04-14T06:28:28.276Z,10.80
2019-04-14T06:31:09.027Z,10.80
2019-04-14T06:33:37.736Z,11.20
2019-04-14T06:36:20.922Z,11.60
2019-04-14T06:38:49.159Z,11.90
2019-04-14T06:41:17.013Z,12.70
2019-04-14T06:43:48.579Z,12.00
2019-04-14T06:46:11.540Z,12.00
2019-04-14T06:48:37.934Z,11.60
2019-04-14T06:51:05.368Z,11.50
2019-04-14T06:53:31.735Z,11.40
2019-04-14T06:55:58.140Z,11.10
2019-04-14T06:58:24.505Z,11.00
2019-04-14T07:00:51.055Z,11.30
2019-04-14T07:03:17.499Z,11.60
2019-04-14T07:05:43.976Z,11.90
2019-04-14T07:08:10.392Z,11.80
2019-04-14T07:10:36.813Z,11.40
2019-04-14T07:13:03.240Z,11.30
2019-04-14T07:15:29.615Z,11.20
2019-04-14T07:17:55.995Z,11.00
2019-04-14T07:20:22.372Z,11.20
2019-04-14T07:22:48.795Z,10.90
2019-04-14T07:25:15.195Z,10.60
2019-04-14T07:27:41.557Z,10.50
2019-04-14T07:30:10.040Z,10.40
2019-04-14T07:32:38.351Z,10.50
2019-04-14T07:35:24.732Z,10.60
2019-04-14T07:38:01.670Z,10.50
2019-04-14T07:40:47.867Z,10.50
2019-04-14T07:43:18.862Z,10.80
2019-04-14T07:45:50.021Z,11.40
2019-04-14T07:48:21.877Z,12.10
2019-04-14T07:50:50.172Z,12.90
2019-04-14T07:53:24.094Z,13.70
2019-04-14T07:55:52.391Z,14.20
2019-04-14T07:58:26.737Z,13.70
2019-04-14T08:00:58.055Z,13.70
2019-04-14T08:03:26.394Z,14.00
2019-04-14T08:05:52.766Z,14.00
2019-04-14T08:08:19.218Z,14.40
2019-04-14T08:10:45.615Z,14.20
2019-04-14T08:13:11.953Z,14.10
2019-04-14T08:15:38.379Z,14.50
2019-04-14T08:18:04.821Z,13.90
2019-04-14T08:20:31.331Z,14.00
2019-04-14T08:22:58.005Z,14.20
2019-04-14T08:25:24.521Z,14.00
2019-04-14T08:27:50.965Z,13.70
2019-04-14T08:30:18.419Z,13.70
2019-04-14T08:32:44.842Z,13.30
2019-04-14T08:35:11.338Z,13.70
2019-04-14T08:37:37.765Z,14.90
2019-04-14T08:40:04.991Z,15.90
2019-04-14T08:42:42.748Z,17.10
2019-04-14T08:45:11.119Z,17.50
2019-04-14T08:47:42.304Z,18.40
2019-04-14T08:50:13.287Z,18.20
2019-04-14T08:52:50.551Z,18.40
2019-04-14T08:55:21.434Z,18.00
2019-04-14T08:57:55.596Z,18.30
2019-04-14T09:00:24.020Z,18.30
2019-04-14T09:03:11.502Z,18.30
2019-04-14T09:05:44.809Z,18.50
2019-04-14T09:08:21.853Z,18.30
2019-04-14T09:10:55.824Z,18.10
2019-04-14T09:13:22.235Z,19.00
2019-04-14T09:15:48.703Z,18.70
2019-04-14T09:18:15.123Z,18.50
2019-04-14T09:20:51.726Z,18.20
2019-04-14T09:23:10.139Z,18.30
2019-04-14T09:25:36.747Z,18.40
2019-04-14T09:28:03.186Z,18.20
2019-04-14T09:30:29.575Z,18.30
2019-04-14T09:32:56.354Z,17.70
2019-04-14T09:35:22.732Z,18.70
2019-04-14T09:37:49.859Z,19.70
2019-04-14T09:40:16.599Z,18.90
2019-04-14T09:42:43.111Z,18.90
2019-04-14T09:45:09.888Z,18.90
2019-04-14T09:47:36.431Z,19.20
2019-04-14T09:50:05.254Z,19.70
2019-04-14T09:52:31.773Z,19.60
2019-04-14T09:54:58.234Z,19.80
2019-04-14T09:57:25.740Z,19.70
2019-04-14T09:59:52.144Z,19.50
2019-04-14T10:02:18.574Z,19.30
2019-04-14T10:04:44.995Z,19.60
2019-04-14T10:07:11.586Z,19.40
2019-04-14T10:09:38.190Z,20.30
2019-04-14T10:12:04.552Z,20.20
2019-04-14T10:14:30.978Z,19.90
2019-04-14T10:16:57.352Z,19.50
2019-04-14T10:19:23.705Z,19.60
2019-04-14T10:21:50.233Z,19.90
2019-04-14T10:24:16.904Z,19.50
2019-04-14T10:26:43.548Z,20.00
2019-04-14T10:29:09.902Z,19.40
2019-04-14T10:31:36.298Z,19.60
2019-04-14T10:34:03.099Z,20.00
2019-04-14T10:36:29.573Z,19.90
2019-04-14T10:38:56.049Z,20.50
2019-04-14T10:41:25.618Z,20.60
2019-04-14T10:43:52.104Z,20.40
2019-04-14T10:46:18.947Z,20.70
2019-04-14T10:48:45.710Z,20.50
2019-04-14T10:51:12.228Z,19.80
2019-04-14T10:53:38.661Z,19.90
2019-04-14T10:56:05.419Z,20.10
2019-04-14T10:58:31.971Z,20.20
2019-04-14T11:00:58.504Z,20.20
2019-04-14T11:03:25.064Z,20.60
2019-04-14T11:05:56.257Z,21.10
2019-04-14T11:08:23.731Z,21.00
2019-04-14T11:10:50.287Z,19.40
2019-04-14T11:13:16.769Z,19.70
2019-04-14T11:15:43.256Z,20.50
2019-04-14T11:18:09.733Z,20.80
2019-04-14T11:20:36.442Z,21.20
2019-04-14T11:23:03.783Z,21.30
2019-04-14T11:25:30.462Z,21.20
2019-04-14T11:27:56.880Z,20.80
2019-04-14T11:30:24.223Z,20.80
2019-04-14T11:32:52.604Z,20.50
2019-04-14T11:35:23.799Z,20.50
2019-04-14T11:37:58.443Z,21.20
2019-04-14T11:40:26.795Z,21.00
2019-04-14T11:42:53.232Z,20.70
2019-04-14T11:45:20.125Z,20.80
2019-04-14T11:47:46.679Z,20.90
2019-04-14T11:50:13.312Z,20.80
2019-04-14T11:52:39.751Z,21.40
2019-04-14T11:55:06.194Z,20.00
2019-04-14T11:57:32.729Z,20.00
2019-04-14T12:00:13.283Z,20.30
2019-04-14T12:02:41.609Z,20.30
2019-04-14T12:05:10.255Z,20.50
2019-04-14T12:07:41.684Z,21.00
2019-04-14T12:10:10.265Z,21.80
2019-04-14T12:12:36.693Z,22.20
2019-04-14T12:15:07.531Z,21.70
2019-04-14T12:17:33.504Z,21.70
2019-04-14T12:19:59.950Z,21.30
2019-04-14T12:22:26.788Z,21.20
2019-04-14T12:24:53.221Z,20.20
2019-04-14T12:27:20.098Z,19.80
2019-04-14T12:29:47.843Z,20.40
2019-04-14T12:32:15.140Z,20.40
2019-04-14T12:34:41.662Z,20.60
2019-04-14T12:37:08.042Z,20.70
2019-04-14T12:39:34.405Z,21.20
2019-04-14T12:42:05.870Z,21.20
2019-04-14T12:44:37.128Z,21.50
2019-04-14T12:47:05.637Z,21.60
2019-04-14T12:49:34.000Z,21.80
2019-04-14T12:52:22.021Z,21.00
2019-04-14T12:54:48.020Z,20.70
2019-04-14T12:57:16.375Z,20.90
2019-04-14T12:59:42.973Z,21.90
2019-04-14T13:02:14.300Z,21.50
2019-04-14T13:04:40.795Z,20.90
2019-04-14T13:07:07.710Z,20.80
2019-04-14T13:09:34.337Z,21.10
2019-04-14T13:12:00.926Z,20.80
2019-04-14T13:14:27.301Z,21.20
2019-04-14T13:16:53.928Z,21.40
2019-04-14T13:19:20.439Z,20.50
2019-04-14T13:21:47.073Z,20.10
2019-04-14T13:24:13.470Z,20.40
2019-04-14T13:26:39.927Z,20.20
2019-04-14T13:29:07.910Z,19.70
2019-04-14T13:31:34.665Z,19.80
2019-04-14T13:34:01.399Z,20.40
2019-04-14T13:36:28.935Z,19.60
2019-04-14T13:38:55.354Z,19.80
2019-04-14T13:41:21.703Z,20.00
2019-04-14T13:43:48.127Z,19.80
2019-04-14T13:46:14.469Z,20.20
2019-04-14T13:48:40.885Z,20.30
2019-04-14T13:51:07.272Z,20.10
2019-04-14T13:53:33.984Z,20.20
2019-04-14T13:56:03.635Z,19.90
2019-04-14T13:58:30.012Z,19.50
2019-04-14T14:00:56.407Z,20.20
2019-04-14T14:03:22.764Z,20.40
2019-04-14T14:05:49.160Z,19.80
2019-04-14T14:08:15.576Z,20.00
2019-04-14T14:10:41.957Z,19.70
2019-04-14T14:13:19.056Z,19.60
2019-04-14T14:16:05.781Z,19.00
2019-04-14T14:18:46.081Z,18.30
2019-04-14T14:21:30.869Z,18.10
2019-04-14T14:24:01.704Z,17.70
2019-04-14T14:26:30.002Z,17.80
2019-04-14T14:28:56.438Z,18.30
2019-04-14T14:31:22.860Z,17.90
2019-04-14T14:33:49.236Z,18.20
2019-04-14T14:36:15.609Z,18.40
2019-04-14T14:38:41.972Z,18.50
2019-04-14T14:41:10.232Z,18.10
2019-04-14T14:43:36.600Z,17.20
2019-04-14T14:46:13.883Z,17.00
2019-04-14T14:48:42.149Z,16.20
2019-04-14T14:51:19.536Z,15.70
2019-04-14T14:53:45.988Z,15.30
2019-04-14T14:56:12.342Z,15.30
2019-04-14T14:58:38.786Z,14.90
2019-04-14T15:01:06.538Z,14.80
2019-04-14T15:03:33.014Z,14.60
2019-04-14T15:05:59.461Z,14.40
2019-04-14T15:08:25.892Z,14.40
2019-04-14T15:10:52.334Z,14.40
2019-04-14T15:13:18.769Z,14.50
2019-04-14T15:15:45.202Z,14.20
2019-04-14T15:18:11.601Z,14.10
2019-04-14T15:20:38.070Z,13.90
2019-04-14T15:23:04.458Z,13.90
2019-04-14T15:25:30.835Z,13.80
2019-04-14T15:27:57.281Z,13.80
2019-04-14T15:30:24.131Z,13.90
2019-04-14T15:32:50.631Z,13.80
2019-04-14T15:35:16.996Z,13.70
2019-04-14T15:37:43.451Z,13.60
2019-04-14T15:40:10.344Z,13.50
2019-04-14T15:42:36.946Z,13.40
2019-04-14T15:45:03.960Z,13.30
2019-04-14T15:47:30.300Z,13.20
2019-04-14T15:49:56.706Z,13.20
2019-04-14T15:52:23.072Z,13.10
2019-04-14T15:54:50.595Z,13.00
2019-04-14T15:57:24.701Z,13.00
2019-04-14T15:59:59.189Z,12.90
2019-04-14T16:02:27.458Z,12.90
2019-04-14T16:04:55.791Z,12.80
2019-04-14T16:07:30.175Z,12.80
2019-04-14T16:10:04.834Z,12.70
2019-04-14T16:12:33.154Z,12.70
2019-04-14T16:15:03.953Z,12.70
2019-04-14T16:17:35.604Z,12.60
2019-04-14T16:20:05.640Z,12.70
2019-04-14T16:22:31.986Z,12.60
2019-04-14T16:24:58.465Z,12.60
2019-04-14T16:27:29.815Z,12.50
2019-04-14T16:30:14.934Z,12.40
2019-04-14T16:32:58.707Z,12.30
2019-04-14T16:35:37.609Z,12.20
2019-04-14T16:38:04.406Z,12.10
2019-04-14T16:40:30.955Z,12.10
2019-04-14T16:42:57.508Z,12.00
2019-04-14T16:45:23.981Z,12.00
2019-04-14T16:47:50.424Z,12.00
2019-04-14T16:50:16.941Z,11.90
2019-04-14T16:52:45.358Z,11.90
2019-04-14T16:55:13.720Z,11.90
2019-04-14T16:57:50.944Z,11.80
2019-04-14T17:00:27.899Z,11.80
2019-04-14T17:02:54.326Z,11.70
2019-04-14T17:05:20.733Z,11.60
2019-04-14T17:07:47.222Z,11.50
2019-04-14T17:10:13.829Z,11.50
2019-04-14T17:12:40.359Z,11.40
2019-04-14T17:15:09.457Z,11.30
2019-04-14T17:17:37.999Z,11.20
2019-04-14T17:20:10.313Z,11.00
2019-04-14T17:22:41.912Z,10.70
2019-04-14T17:25:13.165Z,10.60
2019-04-14T17:27:50.659Z,10.50
2019-04-14T17:30:35.237Z,10.40
2019-04-14T17:33:20.579Z,10.20
2019-04-14T17:35:54.513Z,10.10
2019-04-14T17:38:28.635Z,10.00
2019-04-14T17:41:13.214Z,9.90
2019-04-14T17:43:41.545Z,9.80
2019-04-14T17:46:18.688Z,9.60
2019-04-14T17:48:49.704Z,9.60
2019-04-14T17:51:17.999Z,9.50
2019-04-14T17:53:49.303Z,9.40
2019-04-14T17:56:23.573Z,9.30
2019-04-14T17:58:55.182Z,9.20
2019-04-14T18:01:23.626Z,9.00
2019-04-14T18:04:00.635Z,9.00
2019-04-14T18:06:31.528Z,8.90
2019-04-14T18:08:59.830Z,8.80
2019-04-14T18:11:40.183Z,8.80
2019-04-14T18:14:08.526Z,8.70
2019-04-14T18:16:45.716Z,8.60
2019-04-14T18:19:23.221Z,8.50
2019-04-14T18:21:49.596Z,8.50
2019-04-14T18:24:16.115Z,8.50
2019-04-14T18:26:42.551Z,8.40
2019-04-14T18:29:29.078Z,8.30
2019-04-14T18:32:05.048Z,8.20
2019-04-14T18:34:42.482Z,8.10
2019-04-14T18:37:14.015Z,8.10
2019-04-14T18:39:59.202Z,8.10
2019-04-14T18:42:33.711Z,8.00
2019-04-14T18:45:09.218Z,7.90
2019-04-14T18:47:41.193Z,7.90
2019-04-14T18:50:19.080Z,7.80
2019-04-14T18:53:02.560Z,7.80
2019-04-14T18:55:47.980Z,7.70
2019-04-14T18:58:22.175Z,7.60
2019-04-14T19:01:05.972Z,7.50
2019-04-14T19:03:32.356Z,7.50
2019-04-14T19:05:58.929Z,7.50
2019-04-14T19:08:25.605Z,7.50
2019-04-14T19:11:10.397Z,7.30
2019-04-14T19:13:38.541Z,7.30
2019-04-14T19:16:19.477Z,7.20
2019-04-14T19:18:57.490Z,7.20
2019-04-14T19:21:26.037Z,7.10
2019-04-14T19:23:52.600Z,7.00
2019-04-14T19:26:18.992Z,7.00
2019-04-14T19:28:45.492Z,6.90
2019-04-14T19:31:12.021Z,6.90
2019-04-14T19:33:38.940Z,6.80
2019-04-14T19:36:05.967Z,6.80
2019-04-14T19:38:32.383Z,6.70
2019-04-14T19:40:58.908Z,6.70
2019-04-14T19:43:25.373Z,6.60
2019-04-14T19:45:51.947Z,6.60
2019-04-14T19:48:18.321Z,6.50
2019-04-14T19:50:44.679Z,6.50
2019-04-14T19:53:11.982Z,6.40
2019-04-14T19:55:38.761Z,6.30
2019-04-14T19:58:05.902Z,6.20
2019-04-14T20:00:32.766Z,6.30
2019-04-14T20:02:59.445Z,6.20
2019-04-14T20:05:25.916Z,6.20
2019-04-14T20:07:52.823Z,6.20
2019-04-14T20:10:20.086Z,6.10
2019-04-14T20:12:47.103Z,6.00
2019-04-14T20:15:15.795Z,6.00
2019-04-14T20:17:53.603Z,6.00
2019-04-14T20:20:37.874Z,5.90
2019-04-14T20:23:16.150Z,5.90
2019-04-14T20:25:45.402Z,5.80
2019-04-14T20:28:20.550Z,5.70
2019-04-14T20:30:52.162Z,5.70
2019-04-14T20:33:18.807Z,5.70
2019-04-14T20:35:45.243Z,5.60
2019-04-14T20:38:11.714Z,5.60
2019-04-14T20:40:38.617Z,5.50
2019-04-14T20:43:05.559Z,5.40
2019-04-14T20:45:32.126Z,5.30
2019-04-14T20:47:58.609Z,5.40
2019-04-14T20:50:25.139Z,5.20
2019-04-14T20:52:51.651Z,5.20
2019-04-14T20:55:18.243Z,5.20
2019-04-14T20:57:44.805Z,5.30
2019-04-14T21:00:12.286Z,5.20
2019-04-14T21:02:43.801Z,5.20
2019-04-14T21:05:12.176Z,5.10
2019-04-14T21:07:43.389Z,5.00
2019-04-14T21:10:29.961Z,5.00
2019-04-14T21:12:58.278Z,5.00
2019-04-14T21:15:36.784Z,5.00
2019-04-14T21:18:11.095Z,5.00
2019-04-14T21:20:48.488Z,4.90
2019-04-14T21:23:33.273Z,4.80
2019-04-14T21:26:01.588Z,4.70
2019-04-14T21:28:46.956Z,4.70
2019-04-14T21:31:17.788Z,4.60
2019-04-14T21:33:58.163Z,4.60
2019-04-14T21:36:38.566Z,4.60
2019-04-14T21:39:07.867Z,4.50
2019-04-14T21:41:37.129Z,4.40
2019-04-14T21:44:03.479Z,4.40
2019-04-14T21:46:29.905Z,4.30
2019-04-14T21:48:56.271Z,4.20
2019-04-14T21:51:24.590Z,4.10
2019-04-14T21:53:51.023Z,4.10
2019-04-14T21:56:17.740Z,4.10
2019-04-14T21:58:48.538Z,4.00
2019-04-14T22:01:37.570Z,4.00
2019-04-14T22:04:05.988Z,4.00
2019-04-14T22:06:37.184Z,3.90
2019-04-14T22:09:07.401Z,3.90
2019-04-14T22:11:34.990Z,3.80
2019-04-14T22:14:01.345Z,3.80
2019-04-14T22:16:27.897Z,3.70
2019-04-14T22:18:54.229Z,3.60
2019-04-14T22:21:20.639Z,3.70
2019-04-14T22:23:59.940Z,3.60
2019-04-14T22:26:25.569Z,3.50
2019-04-14T22:28:43.475Z,3.40
2019-04-14T22:31:09.967Z,3.40
2019-04-14T22:33:36.380Z,3.50
2019-04-14T22:36:03.441Z,3.40
2019-04-14T22:38:29.951Z,3.40
2019-04-14T22:40:56.373Z,3.30
2019-04-14T22:43:22.774Z,3.40
2019-04-14T22:45:49.119Z,3.40
2019-04-14T22:48:17.021Z,3.40
2019-04-14T22:50:43.368Z,3.40
2019-04-14T22:53:09.742Z,3.30
2019-04-14T22:55:36.107Z,3.30
2019-04-14T22:58:02.495Z,3.30
2019-04-14T23:00:33.520Z,3.10
2019-04-14T23:03:18.479Z,3.00
2019-04-14T23:06:03.105Z,2.90
2019-04-14T23:08:36.976Z,2.70
2019-04-14T23:11:11.555Z,2.70
2019-04-14T23:13:56.852Z,2.60
2019-04-14T23:16:34.262Z,2.30
2019-04-14T23:19:05.313Z,2.30
2019-04-14T23:21:36.098Z,2.20
2019-04-14T23:24:10.704Z,2.10
2019-04-14T23:26:37.091Z,2.10
2019-04-14T23:29:03.515Z,2.00
2019-04-14T23:31:29.873Z,2.00
2019-04-14T23:33:56.199Z,2.00
2019-04-14T23:36:22.704Z,1.90
2019-04-14T23:38:49.110Z,1.80
2019-04-14T23:41:15.509Z,1.70
2019-04-14T23:43:41.882Z,1.70
2019-04-14T23:46:08.243Z,1.60
2019-04-14T23:48:34.578Z,1.60
2019-04-14T23:51:01.004Z,1.60
2019-04-14T23:53:27.372Z,1.50
2019-04-14T23:55:53.905Z,1.40
2019-04-14T23:58:20.275Z,1.50
